M/y A.b.normal — 2DLI6 — position and weather

sailwx.info

Track history (hours):
 
Tides and Currents Weather Stations Pressure Air Temp Water Temp Dewpoint Dewpoint Depression Visibility Wind Speed Wind Dir Waves Ship Positions

M/y A.b.normal

Last reported at 2014-Aug-24 17:19 UTC. Time now 2014-Aug-28 15:27 UTC.
Position N 38°55' E 001°27'.

Length 28 m; draft 2.6 m.

Type: Pleasure craft. MMSI: 235079977.

Date/timePositionNaut miles runAvg speedWind from/ knotsBaromVisibWave heightAir tempDewpointWater temp
2014-Aug-24 17:19N 38°55' E 001°27'0 0.0
2014-Aug-24 15:09N 38°55' E 001°27'0 0.0
2014-Aug-24 14:18N 38°55' E 001°27'0 0.0
2014-Aug-24 13:18N 38°55' E 001°27'0 0.0
2014-Aug-24 12:33N 38°55' E 001°27'0 0.0
2014-Aug-24 07:16N 38°55' E 001°27'0 0.0
2014-Aug-24 01:31N 38°55' E 001°27'0 0.0
2014-Aug-24 00:21N 38°55' E 001°27'0 0.0
2014-Aug-23 20:22N 38°55' E 001°27'0 0.0
2014-Aug-23 03:32N 38°55' E 001°27'0 0.0
2014-Aug-23 02:24N 38°55' E 001°27'0 0.0
2014-Aug-23 01:19N 38°55' E 001°27'0 0.0
2014-Aug-22 20:29N 38°55' E 001°27'0 0.0
2014-Aug-22 19:14N 38°55' E 001°27'0 0.0
2014-Aug-22 18:32N 38°55' E 001°27'0 0.0
2014-Aug-22 17:27N 38°55' E 001°27'0 0.0
2014-Aug-22 16:21N 38°55' E 001°27'0 0.0
2014-Aug-22 14:25N 38°55' E 001°27'0 0.0
2014-Aug-22 09:29N 38°55' E 001°27'0 0.0
2014-Aug-22 08:24N 38°55' E 001°27'0 0.0
2014-Aug-22 07:16N 38°55' E 001°27'0 0.0
2014-Aug-22 06:06N 38°55' E 001°27'0 0.0
2014-Aug-22 04:22N 38°55' E 001°27'0 0.0
2014-Aug-22 03:33N 38°55' E 001°27'0 0.0
2014-Aug-22 02:08N 38°55' E 001°27'0 0.0
2014-Aug-22 01:33N 38°55' E 001°27'0 0.0
2014-Aug-22 00:33N 38°55' E 001°27'0 0.0
2014-Aug-21 23:05N 38°55' E 001°27'0 0.0
2014-Aug-21 20:31N 38°55' E 001°27'0 0.0
2014-Aug-21 19:25N 38°55' E 001°27'0 0.0
2014-Aug-21 18:25N 38°55' E 001°27'7 2.9
2014-Aug-21 16:09N 38°51' E 001°20'0 0.1
2014-Aug-21 07:19N 38°51' E 001°19'8 7.8
2014-Aug-21 06:14N 38°50' E 001°30'9 8.8
2014-Aug-21 05:15N 38°53' E 001°40'6 8.8
2014-Aug-21 04:32N 38°55' E 001°48'9 8.7
2014-Aug-21 03:33N 38°58' E 001°58'9 8.9
2014-Aug-21 02:31N 39°01' E 002°10'18 9.0
2014-Aug-21 00:30N 39°07' E 002°31'9 9.0
2014-Aug-20 23:33N 39°10' E 002°42'9 9.0
2014-Aug-20 22:33N 39°13' E 002°53'9 8.8
2014-Aug-20 21:33N 39°15' E 003°04'9 9.0
2014-Aug-20 20:33N 39°19' E 003°14'13 8.8
2014-Aug-20 19:06N 39°29' E 003°25'5 8.7
2014-Aug-20 18:32N 39°33' E 003°29'10 8.7
2014-Aug-20 17:24N 39°40' E 003°37'18 8.7
2014-Aug-20 15:19N 39°53' E 003°53'7 0.4
2014-Aug-19 20:23N 39°60' E 003°50'1 0.2
2014-Aug-19 17:31N 39°60' E 003°49'1 0.6
2014-Aug-19 16:33N 39°60' E 003°48'16 0.9
2014-Aug-18 22:22N 40°03' E 004°08'0 0.0
2014-Aug-18 21:14N 40°03' E 004°08'0 0.0
2014-Aug-18 20:14N 40°03' E 004°08'0 0.0
2014-Aug-18 19:25N 40°03' E 004°08'  
2014-Aug-15 10:21N 39°12' E 002°50'34 8.7
2014-Aug-15 06:28N 39°03' E 002°09'  
Track history (hours):
 
Tides and Currents Weather Stations Pressure Air Temp Water Temp Dewpoint Dewpoint Depression Visibility Wind Speed Wind Dir Waves Ship Positions

M/y A.b.normal

Last reported at 2014-Aug-24 17:19 UTC. Time now 2014-Aug-28 15:27 UTC.
Position N 38°55' E 001°27'.

Length 28 m; draft 2.6 m.

Type: Pleasure craft. MMSI: 235079977.

Date/timePositionNaut miles runAvg speedWind from/ knotsBaromVisibWave heightAir tempDewpointWater temp
2014-Aug-24 17:19N 38°55' E 001°27'0 0.0
2014-Aug-24 15:09N 38°55' E 001°27'0 0.0
2014-Aug-24 14:18N 38°55' E 001°27'0 0.0
2014-Aug-24 13:18N 38°55' E 001°27'0 0.0
2014-Aug-24 12:33N 38°55' E 001°27'0 0.0
2014-Aug-24 07:16N 38°55' E 001°27'0 0.0
2014-Aug-24 01:31N 38°55' E 001°27'0 0.0
2014-Aug-24 00:21N 38°55' E 001°27'0 0.0
2014-Aug-23 20:22N 38°55' E 001°27'0 0.0
2014-Aug-23 03:32N 38°55' E 001°27'0 0.0
2014-Aug-23 02:24N 38°55' E 001°27'0 0.0
2014-Aug-23 01:19N 38°55' E 001°27'0 0.0
2014-Aug-22 20:29N 38°55' E 001°27'0 0.0
2014-Aug-22 19:14N 38°55' E 001°27'0 0.0
2014-Aug-22 18:32N 38°55' E 001°27'0 0.0
2014-Aug-22 17:27N 38°55' E 001°27'0 0.0
2014-Aug-22 16:21N 38°55' E 001°27'0 0.0
2014-Aug-22 14:25N 38°55' E 001°27'0 0.0
2014-Aug-22 09:29N 38°55' E 001°27'0 0.0
2014-Aug-22 08:24N 38°55' E 001°27'0 0.0
2014-Aug-22 07:16N 38°55' E 001°27'0 0.0
2014-Aug-22 06:06N 38°55' E 001°27'0 0.0
2014-Aug-22 04:22N 38°55' E 001°27'0 0.0
2014-Aug-22 03:33N 38°55' E 001°27'0 0.0
2014-Aug-22 02:08N 38°55' E 001°27'0 0.0
2014-Aug-22 01:33N 38°55' E 001°27'0 0.0
2014-Aug-22 00:33N 38°55' E 001°27'0 0.0
2014-Aug-21 23:05N 38°55' E 001°27'0 0.0
2014-Aug-21 20:31N 38°55' E 001°27'0 0.0
2014-Aug-21 19:25N 38°55' E 001°27'0 0.0
2014-Aug-21 18:25N 38°55' E 001°27'7 2.9
2014-Aug-21 16:09N 38°51' E 001°20'0 0.1
2014-Aug-21 07:19N 38°51' E 001°19'8 7.8
2014-Aug-21 06:14N 38°50' E 001°30'9 8.8
2014-Aug-21 05:15N 38°53' E 001°40'6 8.8
2014-Aug-21 04:32N 38°55' E 001°48'9 8.7
2014-Aug-21 03:33N 38°58' E 001°58'9 8.9
2014-Aug-21 02:31N 39°01' E 002°10'18 9.0
2014-Aug-21 00:30N 39°07' E 002°31'9 9.0
2014-Aug-20 23:33N 39°10' E 002°42'9 9.0
2014-Aug-20 22:33N 39°13' E 002°53'9 8.8
2014-Aug-20 21:33N 39°15' E 003°04'9 9.0
2014-Aug-20 20:33N 39°19' E 003°14'13 8.8
2014-Aug-20 19:06N 39°29' E 003°25'5 8.7
2014-Aug-20 18:32N 39°33' E 003°29'10 8.7
2014-Aug-20 17:24N 39°40' E 003°37'18 8.7
2014-Aug-20 15:19N 39°53' E 003°53'7 0.4
2014-Aug-19 20:23N 39°60' E 003°50'1 0.2
2014-Aug-19 17:31N 39°60' E 003°49'1 0.6
2014-Aug-19 16:33N 39°60' E 003°48'16 0.9
2014-Aug-18 22:22N 40°03' E 004°08'0 0.0
2014-Aug-18 21:14N 40°03' E 004°08'0 0.0
2014-Aug-18 20:14N 40°03' E 004°08'0 0.0
2014-Aug-18 19:25N 40°03' E 004°08'  
2014-Aug-15 10:21N 39°12' E 002°50'34 8.7
2014-Aug-15 06:28N 39°03' E 002°09'  

Dump ship's entire track history